createdAt,value
2019-03-20T00:01:28.332Z,100987.33
2019-03-20T00:03:55.776Z,100986.98
2019-03-20T00:06:23.269Z,100986.94
2019-03-20T00:08:50.766Z,100987.58
2019-03-20T00:11:18.186Z,100991.47
2019-03-20T00:13:45.615Z,100987.73
2019-03-20T00:16:13.098Z,100989.14
2019-03-20T00:18:40.699Z,100985.56
2019-03-20T00:21:08.179Z,100994.48
2019-03-20T00:23:35.691Z,100992.23
2019-03-20T00:26:03.430Z,100992.20
2019-03-20T00:28:31.079Z,100996.85
2019-03-20T00:30:58.575Z,101001.77
2019-03-20T00:33:26.034Z,100998.31
2019-03-20T00:35:53.530Z,100998.77
2019-03-20T00:38:22.499Z,101000.16
2019-03-20T00:40:49.995Z,100999.15
2019-03-20T00:43:17.473Z,100998.98
2019-03-20T00:45:44.967Z,100998.02
2019-03-20T00:48:12.443Z,101001.14
2019-03-20T00:50:39.888Z,100997.84
2019-03-20T00:53:07.359Z,100996.84
2019-03-20T00:55:34.803Z,100988.56
2019-03-20T00:58:02.255Z,100992.58
2019-03-20T01:00:29.686Z,100994.81
2019-03-20T01:02:57.158Z,100999.64
2019-03-20T01:05:24.636Z,100987.30
2019-03-20T01:07:52.111Z,100987.45
2019-03-20T01:10:19.562Z,100995.34
2019-03-20T01:12:49.472Z,100991.02
2019-03-20T01:15:17.110Z,100988.83
2019-03-20T01:17:44.567Z,100982.34
2019-03-20T01:20:15.703Z,100986.23
2019-03-20T01:22:43.214Z,100984.02
2019-03-20T01:25:10.645Z,100990.82
2019-03-20T01:27:38.117Z,100995.09
2019-03-20T01:30:24.008Z,100996.78
2019-03-20T01:32:51.483Z,100998.09
2019-03-20T01:35:23.783Z,101003.27
2019-03-20T01:37:46.434Z,100998.33
2019-03-20T01:40:15.797Z,100994.66
2019-03-20T01:42:43.395Z,100996.53
2019-03-20T01:45:10.896Z,100995.92
2019-03-20T01:47:38.294Z,100995.54
2019-03-20T01:50:05.711Z,100994.70
2019-03-20T01:52:33.202Z,100985.72
2019-03-20T01:55:00.626Z,100984.86
2019-03-20T01:57:28.081Z,100987.45
2019-03-20T01:59:55.528Z,100989.45
2019-03-20T02:02:23.019Z,100988.61
2019-03-20T02:04:50.443Z,100995.50
2019-03-20T02:07:17.925Z,101000.22
2019-03-20T02:09:45.358Z,100999.30
2019-03-20T02:12:12.862Z,100998.33
2019-03-20T02:14:40.480Z,100995.95
2019-03-20T02:17:07.944Z,101012.33
2019-03-20T02:19:35.385Z,101006.46
2019-03-20T02:22:03.308Z,101001.81
2019-03-20T02:24:30.759Z,101001.50
2019-03-20T02:26:58.259Z,101003.43
2019-03-20T02:29:25.703Z,101005.30
2019-03-20T02:31:53.172Z,101002.11
2019-03-20T02:34:20.642Z,101000.23
2019-03-20T02:36:48.107Z,100996.97
2019-03-20T02:39:15.564Z,101000.63
2019-03-20T02:41:43.058Z,100998.20
2019-03-20T02:44:10.527Z,101003.27
2019-03-20T02:46:37.987Z,101005.90
2019-03-20T02:49:05.448Z,101001.55
2019-03-20T02:51:33.777Z,101004.55
2019-03-20T02:54:01.258Z,101002.83
2019-03-20T02:56:28.701Z,101000.23
2019-03-20T02:58:56.271Z,100998.45
2019-03-20T03:01:23.726Z,100992.91
2019-03-20T03:03:51.157Z,100993.76
2019-03-20T03:06:18.599Z,100993.76
2019-03-20T03:08:46.046Z,100998.55
2019-03-20T03:11:13.500Z,101000.63
2019-03-20T03:13:40.951Z,100994.50
2019-03-20T03:16:08.458Z,100981.88
2019-03-20T03:18:35.897Z,100987.40
2019-03-20T03:21:04.283Z,100990.30
2019-03-20T03:23:31.736Z,100986.73
2019-03-20T03:25:59.226Z,100993.03
2019-03-20T03:28:26.680Z,100995.67
2019-03-20T03:30:54.144Z,100992.58
2019-03-20T03:33:21.616Z,100993.80
2019-03-20T03:35:49.275Z,100988.33
2019-03-20T03:38:16.784Z,100993.93
2019-03-20T03:40:44.230Z,100998.27
2019-03-20T03:43:11.698Z,100991.34
2019-03-20T03:45:39.154Z,100998.86
2019-03-20T03:48:06.616Z,101016.56
2019-03-20T03:50:34.787Z,101020.20
2019-03-20T03:53:02.253Z,101018.60
2019-03-20T03:55:29.738Z,101020.47
2019-03-20T03:57:57.261Z,101020.32
2019-03-20T04:00:25.235Z,101018.42
2019-03-20T04:02:52.720Z,101023.70
2019-03-20T04:05:20.197Z,101017.81
2019-03-20T04:07:47.651Z,101013.16
2019-03-20T04:10:15.094Z,101010.45
2019-03-20T04:12:42.554Z,101019.55
2019-03-20T04:15:10.034Z,101011.67
2019-03-20T04:17:37.521Z,101017.93
2019-03-20T04:20:06.271Z,101017.84
2019-03-20T04:22:33.794Z,101021.80
2019-03-20T04:25:01.245Z,101024.85
2019-03-20T04:27:28.728Z,101024.73
2019-03-20T04:29:56.201Z,101020.56
2019-03-20T04:32:23.652Z,101023.86
2019-03-20T04:34:52.743Z,101017.41
2019-03-20T04:37:20.286Z,101024.41
2019-03-20T04:39:47.754Z,101031.74
2019-03-20T04:42:15.217Z,101028.97
2019-03-20T04:44:42.679Z,101025.80
2019-03-20T04:47:10.143Z,101028.98
2019-03-20T04:49:37.594Z,101028.22
2019-03-20T04:52:05.894Z,101021.77
2019-03-20T04:54:33.339Z,101020.84
2019-03-20T04:57:00.834Z,101029.64
2019-03-20T04:59:28.263Z,101028.91
2019-03-20T05:01:55.717Z,101019.70
2019-03-20T05:04:23.198Z,101026.76
2019-03-20T05:06:58.793Z,101024.28
2019-03-20T05:09:18.174Z,101020.07
2019-03-20T05:11:45.628Z,101019.33
2019-03-20T05:14:13.110Z,101022.66
2019-03-20T05:16:40.578Z,101018.14
2019-03-20T05:19:08.086Z,101022.23
2019-03-20T05:21:36.555Z,101022.30
2019-03-20T05:24:04.007Z,101019.33
2019-03-20T05:26:31.474Z,101026.81
2019-03-20T05:28:58.889Z,101029.20
2019-03-20T05:31:26.366Z,101028.58
2019-03-20T05:33:53.840Z,101033.86
2019-03-20T05:36:21.338Z,101033.15
2019-03-20T05:38:48.789Z,101035.03
2019-03-20T05:41:16.320Z,101042.55
2019-03-20T05:43:43.739Z,101042.27
2019-03-20T05:46:11.165Z,101046.62
2019-03-20T05:48:38.625Z,101048.56
2019-03-20T05:51:06.993Z,101047.88
2019-03-20T05:53:34.470Z,101051.46
2019-03-20T05:56:01.935Z,101046.96
2019-03-20T05:58:29.401Z,101052.00
2019-03-20T06:00:56.910Z,101055.95
2019-03-20T06:03:24.344Z,101062.91
2019-03-20T06:05:51.809Z,101064.22
2019-03-20T06:08:19.264Z,101073.82
2019-03-20T06:10:46.778Z,101073.27
2019-03-20T06:13:14.269Z,101067.43
2019-03-20T06:15:41.727Z,101073.98
2019-03-20T06:18:09.194Z,101077.22
2019-03-20T06:20:37.466Z,101079.61
2019-03-20T06:23:04.931Z,101081.51
2019-03-20T06:25:32.385Z,101080.77
2019-03-20T06:27:59.872Z,101081.79
2019-03-20T06:30:27.334Z,101082.31
2019-03-20T06:32:54.798Z,101078.38
2019-03-20T06:35:23.179Z,101073.02
2019-03-20T06:37:50.699Z,101078.22
2019-03-20T06:40:18.174Z,101074.56
2019-03-20T06:42:45.660Z,101078.30
2019-03-20T06:45:15.722Z,101082.53
2019-03-20T06:47:43.193Z,101092.48
2019-03-20T06:50:13.422Z,101093.05
2019-03-20T06:52:40.860Z,101090.20
2019-03-20T06:55:08.332Z,101097.64
2019-03-20T06:57:35.750Z,101102.64
2019-03-20T07:03:32.560Z,101099.78
2019-03-20T07:06:16.292Z,101104.34
2019-03-20T07:08:44.343Z,101096.38
2019-03-20T07:11:11.871Z,101097.30
2019-03-20T07:13:39.418Z,101101.39
2019-03-20T07:16:06.897Z,101103.75
2019-03-20T07:18:34.384Z,101115.19
2019-03-20T07:21:01.833Z,101114.16
2019-03-20T07:23:29.314Z,101110.69
2019-03-20T07:25:56.754Z,101103.92
2019-03-20T07:28:24.237Z,101106.95
2019-03-20T07:30:51.717Z,101115.09
2019-03-20T07:33:19.168Z,101109.36
2019-03-20T07:35:46.623Z,101106.44
2019-03-20T07:38:14.069Z,101121.28
2019-03-20T07:40:41.581Z,101120.33
2019-03-20T07:43:09.478Z,101124.17
2019-03-20T07:45:36.551Z,101121.91
2019-03-20T07:48:04.010Z,101121.98
2019-03-20T07:50:31.466Z,101123.12
2019-03-20T07:52:58.939Z,101126.17
2019-03-20T07:55:26.380Z,101125.69
2019-03-20T07:57:53.838Z,101126.34
2019-03-20T08:00:21.291Z,101130.76
2019-03-20T08:02:48.741Z,101128.92
2019-03-20T08:05:16.198Z,101128.01
2019-03-20T08:07:43.671Z,101129.47
2019-03-20T08:10:12.637Z,101124.17
2019-03-20T08:12:40.078Z,101133.15
2019-03-20T08:15:23.135Z,101133.73
2019-03-20T08:17:50.595Z,101142.41
2019-03-20T08:20:21.892Z,101144.77
2019-03-20T08:22:49.365Z,101147.28
2019-03-20T08:25:16.802Z,101151.10
2019-03-20T08:27:44.262Z,101146.70
2019-03-20T08:30:13.876Z,101150.62
2019-03-20T08:32:40.896Z,101158.52
2019-03-20T08:35:08.337Z,101163.95
2019-03-20T08:37:35.812Z,101166.19
2019-03-20T08:40:03.273Z,101175.55
2019-03-20T08:42:30.746Z,101173.16
2019-03-20T08:44:59.130Z,101180.06
2019-03-20T08:47:26.574Z,101180.03
2019-03-20T08:49:54.031Z,101184.34
2019-03-20T08:52:21.515Z,101183.88
2019-03-20T08:54:48.967Z,101180.98
2019-03-20T08:57:16.393Z,101192.14
2019-03-20T08:59:43.836Z,101191.84
2019-03-20T09:02:11.274Z,101188.42
2019-03-20T09:04:38.710Z,101189.00
2019-03-20T09:07:06.150Z,101190.89
2019-03-20T09:09:33.622Z,101194.39
2019-03-20T09:12:01.053Z,101193.09
2019-03-20T09:14:28.517Z,101192.53
2019-03-20T09:16:55.976Z,101196.03
2019-03-20T09:19:24.260Z,101190.87
2019-03-20T09:21:51.822Z,101199.89
2019-03-20T09:24:19.287Z,101195.70
2019-03-20T09:26:46.769Z,101192.52
2019-03-20T09:29:18.610Z,101199.05
2019-03-20T09:31:43.659Z,101199.97
2019-03-20T09:34:11.228Z,101210.45
2019-03-20T09:36:43.205Z,101220.69
2019-03-20T09:39:06.160Z,101210.78
2019-03-20T09:41:33.611Z,101213.64
2019-03-20T09:44:01.078Z,101209.13
2019-03-20T09:46:28.523Z,101205.58
2019-03-20T09:48:56.040Z,101207.16
2019-03-20T09:51:23.518Z,101208.76
2019-03-20T09:53:50.980Z,101203.34
2019-03-20T09:56:18.437Z,101206.55
2019-03-20T09:58:45.902Z,101204.38
2019-03-20T10:01:13.331Z,101211.08
2019-03-20T10:03:41.821Z,101210.08
2019-03-20T10:06:09.251Z,101211.27
2019-03-20T10:08:36.757Z,101209.72
2019-03-20T10:11:04.218Z,101208.89
2019-03-20T10:13:31.711Z,101202.73
2019-03-20T10:15:59.202Z,101206.84
2019-03-20T10:18:27.458Z,101205.92
2019-03-20T10:20:54.907Z,101199.83
2019-03-20T10:23:22.341Z,101202.48
2019-03-20T10:25:49.825Z,101197.50
2019-03-20T10:28:17.330Z,101202.45
2019-03-20T10:30:44.805Z,101199.91
2019-03-20T10:33:12.319Z,101202.50
2019-03-20T10:35:49.643Z,101209.99
2019-03-20T10:38:07.286Z,101201.03
2019-03-20T10:40:35.852Z,101207.38
2019-03-20T10:43:03.414Z,101202.78
2019-03-20T10:45:30.843Z,101191.81
2019-03-20T10:47:58.302Z,101196.98
2019-03-20T10:50:26.677Z,101196.56
2019-03-20T10:52:54.113Z,101189.45
2019-03-20T10:55:21.587Z,101191.61
2019-03-20T10:57:49.022Z,101196.89
2019-03-20T11:00:21.840Z,101196.70
2019-03-20T11:02:49.307Z,101191.56
2019-03-20T11:05:16.758Z,101205.14
2019-03-20T11:07:44.223Z,101210.14
2019-03-20T11:10:16.148Z,101198.54
2019-03-20T11:12:43.615Z,101209.77
2019-03-20T11:15:11.998Z,101212.29
2019-03-20T11:17:39.500Z,101203.53
2019-03-20T11:20:06.988Z,101214.73
2019-03-20T11:22:34.492Z,101219.16
2019-03-20T11:25:01.954Z,101216.19
2019-03-20T11:27:29.460Z,101213.77
2019-03-20T11:29:56.942Z,101209.60
2019-03-20T11:32:24.374Z,101215.66
2019-03-20T11:34:51.845Z,101211.03
2019-03-20T11:37:19.294Z,101212.09
2019-03-20T11:39:46.774Z,101221.16
2019-03-20T11:42:14.224Z,101213.48
2019-03-20T11:44:41.696Z,101214.56
2019-03-20T11:47:09.137Z,101209.48
2019-03-20T11:49:36.619Z,101214.62
2019-03-20T11:52:06.206Z,101216.23
2019-03-20T11:54:31.637Z,101217.49
2019-03-20T11:56:59.101Z,101215.11
2019-03-20T11:59:26.600Z,101213.04
2019-03-20T12:01:54.061Z,101212.47
2019-03-20T12:04:21.525Z,101210.11
2019-03-20T12:06:48.971Z,101205.67
2019-03-20T12:09:16.438Z,101213.22
2019-03-20T12:11:46.091Z,101218.06
2019-03-20T12:14:11.415Z,101213.76
2019-03-20T12:16:38.932Z,101211.99
2019-03-20T12:19:06.367Z,101212.23
2019-03-20T12:21:33.823Z,101214.94
2019-03-20T12:24:01.273Z,101211.77
2019-03-20T12:26:28.720Z,101212.16
2019-03-20T12:28:56.199Z,101209.68
2019-03-20T12:31:23.744Z,101218.83
2019-03-20T12:33:51.228Z,101218.19
2019-03-20T12:36:18.787Z,101218.77
2019-03-20T12:38:46.219Z,101214.84
2019-03-20T12:41:13.688Z,101219.97
2019-03-20T12:43:41.163Z,101221.09
2019-03-20T12:46:08.608Z,101220.42
2019-03-20T12:48:36.211Z,101219.95
2019-03-20T12:51:03.690Z,101218.62
2019-03-20T12:53:31.147Z,101221.37
2019-03-20T12:55:58.609Z,101218.82
2019-03-20T12:58:26.075Z,101221.36
2019-03-20T13:00:54.618Z,101203.16
2019-03-20T13:03:20.986Z,101193.77
2019-03-20T13:05:48.450Z,101199.73
2019-03-20T13:08:15.937Z,101201.38
2019-03-20T13:10:43.408Z,101205.05
2019-03-20T13:13:10.898Z,101208.17
2019-03-20T13:15:38.331Z,101200.56
2019-03-20T13:18:05.791Z,101198.27
2019-03-20T13:20:33.230Z,101200.88
2019-03-20T13:23:11.482Z,101203.60
2019-03-20T13:25:38.946Z,101200.85
2019-03-20T13:28:06.423Z,101196.61
2019-03-20T13:30:38.524Z,101191.20
2019-03-20T13:33:05.992Z,101201.23
2019-03-20T13:35:33.476Z,101199.80
2019-03-20T13:38:00.976Z,101191.83
2019-03-20T13:40:28.428Z,101206.47
2019-03-20T13:42:55.887Z,101206.14
2019-03-20T13:45:23.345Z,101205.05
2019-03-20T13:47:51.739Z,101209.51
2019-03-20T13:50:19.217Z,101205.21
2019-03-20T13:52:46.688Z,101210.63
2019-03-20T13:55:14.136Z,101210.25
2019-03-20T13:57:41.753Z,101209.51
2019-03-20T14:00:19.615Z,101207.25
2019-03-20T14:02:47.071Z,101213.20
2019-03-20T14:05:14.511Z,101213.28
2019-03-20T14:07:41.996Z,101208.16
2019-03-20T14:10:10.168Z,101211.78
2019-03-20T14:12:37.614Z,101207.05
2019-03-20T14:15:05.091Z,101216.58
2019-03-20T14:17:32.557Z,101214.08
2019-03-20T14:20:00.038Z,101213.67
2019-03-20T14:22:27.498Z,101213.89
2019-03-20T14:24:56.688Z,101208.88
2019-03-20T14:27:24.178Z,101209.67
2019-03-20T14:29:52.380Z,101213.03
2019-03-20T14:32:19.858Z,101211.69
2019-03-20T14:34:47.324Z,101205.95
2019-03-20T14:37:14.763Z,101197.70
2019-03-20T14:39:42.219Z,101194.57
2019-03-20T14:42:09.647Z,101197.70
2019-03-20T14:44:37.122Z,101198.30
2019-03-20T14:47:04.564Z,101190.95
2019-03-20T14:49:32.047Z,101195.28
2019-03-20T14:51:59.512Z,101197.84
2019-03-20T14:54:26.991Z,101202.60
2019-03-20T14:56:54.444Z,101194.57
2019-03-20T14:59:21.888Z,101192.34
2019-03-20T15:01:49.381Z,101197.86
2019-03-20T15:04:16.815Z,101199.80
2019-03-20T15:06:44.300Z,101193.23
2019-03-20T15:09:11.754Z,101197.05
2019-03-20T15:11:41.645Z,101191.20
2019-03-20T15:14:09.241Z,101190.39
2019-03-20T15:16:36.717Z,101188.23
2019-03-20T15:19:04.197Z,101189.81
2019-03-20T15:21:31.653Z,101181.81
2019-03-20T15:23:59.098Z,101181.00
2019-03-20T15:26:26.570Z,101185.19
2019-03-20T15:28:54.049Z,101184.12
2019-03-20T15:31:21.518Z,101187.47
2019-03-20T15:33:48.990Z,101183.26
2019-03-20T15:36:16.444Z,101185.84
2019-03-20T15:38:43.943Z,101176.72
2019-03-20T15:41:11.402Z,101170.57
2019-03-20T15:43:38.863Z,101175.36
2019-03-20T15:46:06.289Z,101174.94
2019-03-20T15:48:33.733Z,101175.33
2019-03-20T15:51:01.190Z,101172.63
2019-03-20T15:53:28.654Z,101169.85
2019-03-20T15:55:56.119Z,101169.37
2019-03-20T15:58:24.336Z,101172.83
2019-03-20T16:00:51.791Z,101164.09
2019-03-20T16:03:22.447Z,101163.22
2019-03-20T16:05:49.879Z,101164.48
2019-03-20T16:08:17.373Z,101162.95
2019-03-20T16:10:44.832Z,101165.89
2019-03-20T16:13:12.287Z,101167.05
2019-03-20T16:15:39.758Z,101168.37
2019-03-20T16:18:07.245Z,101170.38
2019-03-20T16:20:34.724Z,101171.00
2019-03-20T16:23:02.172Z,101171.39
2019-03-20T16:25:29.677Z,101163.63
2019-03-20T16:27:57.272Z,101175.13
2019-03-20T16:30:25.893Z,101170.95
2019-03-20T16:32:53.351Z,101178.50
2019-03-20T16:35:20.877Z,101177.00
2019-03-20T16:37:48.351Z,101179.20
2019-03-20T16:40:15.795Z,101175.05
2019-03-20T16:42:43.245Z,101180.42
2019-03-20T16:45:20.297Z,101183.38
2019-03-20T16:47:47.726Z,101190.14
2019-03-20T16:50:15.904Z,101185.68
2019-03-20T16:52:43.361Z,101180.06
2019-03-20T16:55:10.841Z,101180.72
2019-03-20T16:57:38.291Z,101181.90
2019-03-20T17:00:29.912Z,101180.62
2019-03-20T17:02:57.382Z,101182.91
2019-03-20T17:05:25.762Z,101177.78
2019-03-20T17:07:53.285Z,101180.46
2019-03-20T17:10:24.096Z,101182.00
2019-03-20T17:12:51.714Z,101187.03
2019-03-20T17:15:19.922Z,101184.02
2019-03-20T17:17:47.367Z,101185.20
2019-03-20T17:20:14.856Z,101175.14
2019-03-20T17:22:42.290Z,101185.39
2019-03-20T17:25:09.773Z,101183.05
2019-03-20T17:27:37.229Z,101188.03
2019-03-20T17:30:04.713Z,101189.16
2019-03-20T17:32:32.400Z,101190.58
2019-03-20T17:34:59.922Z,101190.00
2019-03-20T17:37:27.387Z,101187.58
2019-03-20T17:39:54.855Z,101186.73
2019-03-20T17:42:22.920Z,101197.11
2019-03-20T17:44:50.396Z,101194.42
2019-03-20T17:47:17.876Z,101193.91
2019-03-20T17:49:45.326Z,101194.37
2019-03-20T17:52:12.817Z,101192.44
2019-03-20T17:54:40.266Z,101197.21
2019-03-20T17:57:07.720Z,101194.87
2019-03-20T17:59:35.194Z,101192.86
2019-03-20T18:02:02.641Z,101194.05
2019-03-20T18:04:30.091Z,101203.16
2019-03-20T18:06:57.595Z,101198.45
2019-03-20T18:09:25.237Z,101201.23
2019-03-20T18:11:52.835Z,101199.72
2019-03-20T18:14:20.317Z,101201.20
2019-03-20T18:16:47.772Z,101200.73
2019-03-20T18:19:15.244Z,101212.63
2019-03-20T18:21:42.735Z,101216.53
2019-03-20T18:24:10.189Z,101217.67
2019-03-20T18:26:37.702Z,101215.47
2019-03-20T18:29:05.107Z,101229.20
2019-03-20T18:31:32.568Z,101230.25
2019-03-20T18:34:00.015Z,101230.17
2019-03-20T18:36:27.501Z,101234.02
2019-03-20T18:38:55.521Z,101237.84
2019-03-20T18:41:23.000Z,101232.89
2019-03-20T18:43:50.476Z,101232.51
2019-03-20T18:46:17.980Z,101237.86
2019-03-20T18:48:45.419Z,101246.86
2019-03-20T18:51:12.884Z,101248.62
2019-03-20T18:53:40.322Z,101248.56
2019-03-20T18:56:07.802Z,101246.13
2019-03-20T18:58:35.257Z,101249.52
2019-03-20T19:01:02.708Z,101247.13
2019-03-20T19:03:31.011Z,101248.23
2019-03-20T19:06:02.929Z,101251.61
2019-03-20T19:08:30.410Z,101250.67
2019-03-20T19:10:58.477Z,101261.77
2019-03-20T19:13:28.118Z,101256.50
2019-03-20T19:15:55.740Z,101257.83
2019-03-20T19:18:23.284Z,101264.81
2019-03-20T19:20:50.752Z,101268.48
2019-03-20T19:23:18.224Z,101276.27
2019-03-20T19:25:45.668Z,101271.38
2019-03-20T19:28:13.144Z,101277.73
2019-03-20T19:30:40.751Z,101279.91
2019-03-20T19:33:08.588Z,101284.41
2019-03-20T19:35:36.027Z,101274.81
2019-03-20T19:38:03.475Z,101269.73
2019-03-20T19:40:31.055Z,101269.04
2019-03-20T19:42:58.573Z,101277.28
2019-03-20T19:45:26.039Z,101276.50
2019-03-20T19:47:53.504Z,101274.20
2019-03-20T19:50:21.783Z,101273.92
2019-03-20T19:52:49.363Z,101284.42
2019-03-20T19:55:16.839Z,101290.39
2019-03-20T19:57:44.275Z,101289.19
2019-03-20T20:00:15.327Z,101290.66
2019-03-20T20:02:42.778Z,101291.39
2019-03-20T20:05:15.667Z,101289.98
2019-03-20T20:07:37.720Z,101278.69
2019-03-20T20:10:08.139Z,101283.55
2019-03-20T20:12:35.614Z,101286.45
2019-03-20T20:15:03.259Z,101282.70
2019-03-20T20:17:30.900Z,101283.48
2019-03-20T20:19:59.426Z,101277.27
2019-03-20T20:22:27.746Z,101276.11
2019-03-20T20:24:55.181Z,101274.56
2019-03-20T20:27:22.647Z,101281.46
2019-03-20T20:29:50.071Z,101280.09
2019-03-20T20:32:17.497Z,101281.42
2019-03-20T20:34:45.397Z,101276.80
2019-03-20T20:37:12.866Z,101281.11
2019-03-20T20:39:40.305Z,101278.23
2019-03-20T20:42:07.772Z,101278.02
2019-03-20T20:44:36.031Z,101273.09
2019-03-20T20:47:03.496Z,101278.41
2019-03-20T20:49:32.249Z,101271.98
2019-03-20T20:51:58.427Z,101278.62
2019-03-20T20:54:25.912Z,101274.26
2019-03-20T20:56:53.380Z,101270.80
2019-03-20T20:59:20.868Z,101271.15
2019-03-20T21:01:48.304Z,101274.20
2019-03-20T21:04:16.016Z,101277.78
2019-03-20T21:06:43.473Z,101272.81
2019-03-20T21:09:10.987Z,101270.98
2019-03-20T21:11:38.414Z,101269.33
2019-03-20T21:14:05.862Z,101271.08
2019-03-20T21:16:33.342Z,101268.05
2019-03-20T21:19:26.751Z,101267.17
2019-03-20T21:22:10.820Z,101269.22
2019-03-20T21:24:38.994Z,101273.52
2019-03-20T21:27:27.008Z,101268.99
2019-03-20T21:30:19.374Z,101273.47
2019-03-20T21:32:49.711Z,101265.34
2019-03-20T21:35:28.984Z,101267.72
2019-03-20T21:38:04.199Z,101271.16
2019-03-20T21:40:32.429Z,101269.70
2019-03-20T21:43:11.614Z,101275.69
2019-03-20T21:45:41.750Z,101271.43
2019-03-20T21:48:09.287Z,101268.79
2019-03-20T21:50:48.625Z,101272.59
2019-03-20T21:53:18.031Z,101274.92
2019-03-20T21:55:57.393Z,101273.53
2019-03-20T21:58:24.847Z,101278.41
2019-03-20T22:04:03.085Z,101270.82
2019-03-20T22:06:37.815Z,101274.26
2019-03-20T22:09:05.263Z,101276.42
2019-03-20T22:11:53.330Z,101278.91
2019-03-20T22:14:20.782Z,101272.41
2019-03-20T22:17:10.640Z,101272.64
2019-03-20T22:19:42.708Z,101268.05
2019-03-20T22:22:16.721Z,101276.23
2019-03-20T22:25:05.833Z,101277.95
2019-03-20T22:27:38.916Z,101279.25
2019-03-20T22:30:06.358Z,101273.48
2019-03-20T22:32:40.646Z,101266.00
2019-03-20T22:35:23.276Z,101271.30
2019-03-20T22:37:50.763Z,101268.80
2019-03-20T22:40:30.551Z,101272.19
2019-03-20T22:43:11.301Z,101270.09
2019-03-20T22:45:48.862Z,101273.71
2019-03-20T22:48:35.999Z,101275.42
2019-03-20T22:51:23.154Z,101280.59
2019-03-20T22:54:02.262Z,101278.78
2019-03-20T22:56:35.189Z,101277.53
2019-03-20T22:59:02.668Z,101274.73
2019-03-20T23:01:30.119Z,101273.36
2019-03-20T23:04:00.399Z,101274.66
2019-03-20T23:06:27.835Z,101274.53
2019-03-20T23:08:55.644Z,101278.41
2019-03-20T23:11:23.139Z,101269.48
2019-03-20T23:13:50.669Z,101269.42
2019-03-20T23:16:18.123Z,101274.03
2019-03-20T23:18:45.589Z,101279.34
2019-03-20T23:21:13.026Z,101277.06
2019-03-20T23:23:40.471Z,101277.77
2019-03-20T23:26:07.938Z,101271.79
2019-03-20T23:28:35.457Z,101275.02
2019-03-20T23:31:03.055Z,101276.17
2019-03-20T23:33:31.414Z,101279.27
2019-03-20T23:35:59.131Z,101275.59
2019-03-20T23:38:28.575Z,101275.59
2019-03-20T23:40:54.252Z,101272.52
2019-03-20T23:43:21.682Z,101272.92
2019-03-20T23:45:49.154Z,101274.46
2019-03-20T23:48:23.005Z,101272.15
2019-03-20T23:50:51.209Z,101270.98
2019-03-20T23:53:18.645Z,101274.64
2019-03-20T23:55:46.098Z,101277.29
2019-03-20T23:58:13.548Z,101274.52
